Redvers, Canada
Current Conditions -  °F | °C
As of 12:00 PM on Saturday 20 Dec 2014 (Local Time) from CYEN Reporting Station
Light Snow Light Snow  
Wind Chill: 15°   Ceiling: 1500
Heat Index: 23°   Visibility: 3mi
Dew Point: 23°   Wind: 7mph
Humidity: 100%   Direction: 120°ESE
Pressure: 29.8"   Gusts: NA
Location:  49.57°N, 101.7°W
Report Text: CYEN 201800Z 12006KT 3SM -SN BR OVC015 M05/M05 A2980 RMK SC8SLP128
Loading
Personal Weather Stations






























Interactive Weather Map New forecast layout! Learn more

10-Day Weather Forecast

Advertisements
Track Severe Weather on mobile